sensor_id;sensor_type;location;lat;lon;timestamp;P1;durP1;ratioP1;P2;durP2;ratioP2
74679;SDS011;63211;48.548;2.704;2024-02-04T00:02:10;0.75;;;0.45;;
74679;SDS011;63211;48.548;2.704;2024-02-04T00:04:39;0.95;;;0.60;;
74679;SDS011;63211;48.548;2.704;2024-02-04T00:07:07;0.47;;;0.30;;
74679;SDS011;63211;48.548;2.704;2024-02-04T00:09:33;1.15;;;0.40;;
74679;SDS011;63211;48.548;2.704;2024-02-04T00:12:00;1.60;;;0.60;;
74679;SDS011;63211;48.548;2.704;2024-02-04T00:14:28;0.65;;;0.30;;
74679;SDS011;63211;48.548;2.704;2024-02-04T00:16:55;0.50;;;0.30;;
74679;SDS011;63211;48.548;2.704;2024-02-04T00:19:22;0.82;;;0.43;;
74679;SDS011;63211;48.548;2.704;2024-02-04T00:21:48;0.30;;;0.28;;
74679;SDS011;63211;48.548;2.704;2024-02-04T00:24:16;0.43;;;0.30;;
74679;SDS011;63211;48.548;2.704;2024-02-04T00:26:44;1.38;;;0.52;;
74679;SDS011;63211;48.548;2.704;2024-02-04T00:29:11;0.60;;;0.50;;
74679;SDS011;63211;48.548;2.704;2024-02-04T00:31:37;0.80;;;0.40;;
74679;SDS011;63211;48.548;2.704;2024-02-04T00:34:04;0.70;;;0.30;;
74679;SDS011;63211;48.548;2.704;2024-02-04T00:36:31;0.63;;;0.30;;
74679;SDS011;63211;48.548;2.704;2024-02-04T00:38:57;0.40;;;0.30;;
74679;SDS011;63211;48.548;2.704;2024-02-04T00:41:25;1.13;;;0.50;;
74679;SDS011;63211;48.548;2.704;2024-02-04T00:43:52;0.95;;;0.43;;
74679;SDS011;63211;48.548;2.704;2024-02-04T00:46:18;6.43;;;0.60;;
74679;SDS011;63211;48.548;2.704;2024-02-04T00:48:45;1.08;;;0.40;;
74679;SDS011;63211;48.548;2.704;2024-02-04T00:51:12;1.85;;;0.50;;
74679;SDS011;63211;48.548;2.704;2024-02-04T00:53:39;0.68;;;0.38;;
74679;SDS011;63211;48.548;2.704;2024-02-04T00:56:06;2.55;;;0.60;;
74679;SDS011;63211;48.548;2.704;2024-02-04T00:58:34;1.58;;;0.30;;
74679;SDS011;63211;48.548;2.704;2024-02-04T01:01:01;1.75;;;0.93;;
74679;SDS011;63211;48.548;2.704;2024-02-04T01:03:27;2.17;;;0.50;;
74679;SDS011;63211;48.548;2.704;2024-02-04T01:05:54;0.80;;;0.20;;
74679;SDS011;63211;48.548;2.704;2024-02-04T01:08:21;1.10;;;0.55;;
74679;SDS011;63211;48.548;2.704;2024-02-04T01:10:48;0.77;;;0.30;;
74679;SDS011;63211;48.548;2.704;2024-02-04T01:13:16;1.17;;;0.47;;
74679;SDS011;63211;48.548;2.704;2024-02-04T01:15:44;0.80;;;0.30;;
74679;SDS011;63211;48.548;2.704;2024-02-04T01:18:11;0.82;;;0.30;;
74679;SDS011;63211;48.548;2.704;2024-02-04T01:20:37;1.10;;;0.40;;
74679;SDS011;63211;48.548;2.704;2024-02-04T01:23:04;0.40;;;0.20;;
74679;SDS011;63211;48.548;2.704;2024-02-04T01:25:31;1.10;;;0.32;;
74679;SDS011;63211;48.548;2.704;2024-02-04T01:27:57;0.63;;;0.38;;
74679;SDS011;63211;48.548;2.704;2024-02-04T01:30:24;1.60;;;0.38;;
74679;SDS011;63211;48.548;2.704;2024-02-04T01:32:52;0.57;;;0.20;;
74679;SDS011;63211;48.548;2.704;2024-02-04T01:35:18;0.77;;;0.30;;
74679;SDS011;63211;48.548;2.704;2024-02-04T01:37:45;0.65;;;0.17;;
74679;SDS011;63211;48.548;2.704;2024-02-04T01:40:13;0.50;;;0.30;;
74679;SDS011;63211;48.548;2.704;2024-02-04T01:42:40;0.50;;;0.25;;
74679;SDS011;63211;48.548;2.704;2024-02-04T01:45:07;0.70;;;0.40;;
74679;SDS011;63211;48.548;2.704;2024-02-04T01:47:34;0.30;;;0.20;;
74679;SDS011;63211;48.548;2.704;2024-02-04T01:50:02;0.38;;;0.30;;
74679;SDS011;63211;48.548;2.704;2024-02-04T01:52:30;0.40;;;0.20;;
74679;SDS011;63211;48.548;2.704;2024-02-04T01:54:58;0.57;;;0.30;;
74679;SDS011;63211;48.548;2.704;2024-02-04T01:57:26;0.47;;;0.20;;
74679;SDS011;63211;48.548;2.704;2024-02-04T01:59:53;0.95;;;0.20;;
74679;SDS011;63211;48.548;2.704;2024-02-04T02:02:22;1.17;;;0.63;;
74679;SDS011;63211;48.548;2.704;2024-02-04T02:04:49;0.40;;;0.40;;
74679;SDS011;63211;48.548;2.704;2024-02-04T02:07:18;0.22;;;0.20;;
74679;SDS011;63211;48.548;2.704;2024-02-04T02:09:46;0.85;;;0.35;;
74679;SDS011;63211;48.548;2.704;2024-02-04T02:12:14;1.00;;;0.43;;
74679;SDS011;63211;48.548;2.704;2024-02-04T02:14:46;0.50;;;0.30;;
74679;SDS011;63211;48.548;2.704;2024-02-04T02:17:20;1.52;;;0.50;;
74679;SDS011;63211;48.548;2.704;2024-02-04T02:19:52;0.75;;;0.52;;
74679;SDS011;63211;48.548;2.704;2024-02-04T02:22:28;0.63;;;0.35;;
74679;SDS011;63211;48.548;2.704;2024-02-04T02:24:57;0.52;;;0.40;;
74679;SDS011;63211;48.548;2.704;2024-02-04T02:27:24;0.88;;;0.40;;
74679;SDS011;63211;48.548;2.704;2024-02-04T02:29:51;0.80;;;0.22;;
74679;SDS011;63211;48.548;2.704;2024-02-04T02:32:18;0.50;;;0.30;;
74679;SDS011;63211;48.548;2.704;2024-02-04T02:34:45;0.40;;;0.20;;
74679;SDS011;63211;48.548;2.704;2024-02-04T02:37:16;0.68;;;0.30;;
74679;SDS011;63211;48.548;2.704;2024-02-04T02:39:53;1.75;;;0.55;;
74679;SDS011;63211;48.548;2.704;2024-02-04T02:42:27;0.50;;;0.30;;
74679;SDS011;63211;48.548;2.704;2024-02-04T02:44:56;1.00;;;0.50;;
74679;SDS011;63211;48.548;2.704;2024-02-04T02:47:23;0.38;;;0.30;;
74679;SDS011;63211;48.548;2.704;2024-02-04T02:49:51;0.50;;;0.30;;
74679;SDS011;63211;48.548;2.704;2024-02-04T02:52:19;1.33;;;0.20;;
74679;SDS011;63211;48.548;2.704;2024-02-04T02:54:46;0.57;;;0.30;;
74679;SDS011;63211;48.548;2.704;2024-02-04T02:57:14;0.40;;;0.20;;
74679;SDS011;63211;48.548;2.704;2024-02-04T02:59:41;0.95;;;0.20;;
74679;SDS011;63211;48.548;2.704;2024-02-04T03:02:07;0.57;;;0.40;;
74679;SDS011;63211;48.548;2.704;2024-02-04T03:04:34;0.38;;;0.22;;
74679;SDS011;63211;48.548;2.704;2024-02-04T03:07:00;0.30;;;0.20;;
74679;SDS011;63211;48.548;2.704;2024-02-04T03:09:27;1.00;;;0.40;;
74679;SDS011;63211;48.548;2.704;2024-02-04T03:11:54;0.50;;;0.30;;
74679;SDS011;63211;48.548;2.704;2024-02-04T03:14:22;0.50;;;0.30;;
74679;SDS011;63211;48.548;2.704;2024-02-04T03:16:48;0.63;;;0.30;;
74679;SDS011;63211;48.548;2.704;2024-02-04T03:19:15;1.00;;;0.57;;
74679;SDS011;63211;48.548;2.704;2024-02-04T03:21:41;0.60;;;0.50;;
74679;SDS011;63211;48.548;2.704;2024-02-04T03:24:08;0.57;;;0.47;;
74679;SDS011;63211;48.548;2.704;2024-02-04T03:26:34;0.57;;;0.20;;
74679;SDS011;63211;48.548;2.704;2024-02-04T03:29:01;0.30;;;0.25;;
74679;SDS011;63211;48.548;2.704;2024-02-04T03:31:31;0.88;;;0.30;;
74679;SDS011;63211;48.548;2.704;2024-02-04T03:33:57;0.90;;;0.30;;
74679;SDS011;63211;48.548;2.704;2024-02-04T03:36:24;0.30;;;0.15;;
74679;SDS011;63211;48.548;2.704;2024-02-04T03:38:51;0.80;;;0.20;;
74679;SDS011;63211;48.548;2.704;2024-02-04T03:41:18;0.43;;;0.30;;
74679;SDS011;63211;48.548;2.704;2024-02-04T03:43:45;0.40;;;0.10;;
74679;SDS011;63211;48.548;2.704;2024-02-04T03:46:12;0.75;;;0.22;;
74679;SDS011;63211;48.548;2.704;2024-02-04T03:48:40;0.20;;;0.15;;
74679;SDS011;63211;48.548;2.704;2024-02-04T03:51:07;0.20;;;0.15;;
74679;SDS011;63211;48.548;2.704;2024-02-04T03:53:34;0.95;;;0.22;;
74679;SDS011;63211;48.548;2.704;2024-02-04T03:56:01;0.68;;;0.25;;
74679;SDS011;63211;48.548;2.704;2024-02-04T03:58:27;0.57;;;0.20;;
74679;SDS011;63211;48.548;2.704;2024-02-04T04:00:55;0.20;;;0.13;;
74679;SDS011;63211;48.548;2.704;2024-02-04T04:03:22;0.40;;;0.20;;
74679;SDS011;63211;48.548;2.704;2024-02-04T04:05:50;1.02;;;0.20;;
74679;SDS011;63211;48.548;2.704;2024-02-04T04:08:16;0.40;;;0.20;;
74679;SDS011;63211;48.548;2.704;2024-02-04T04:10:43;0.52;;;0.20;;
74679;SDS011;63211;48.548;2.704;2024-02-04T04:13:10;0.40;;;0.20;;
74679;SDS011;63211;48.548;2.704;2024-02-04T04:15:37;0.98;;;0.30;;
74679;SDS011;63211;48.548;2.704;2024-02-04T04:18:04;0.50;;;0.20;;
74679;SDS011;63211;48.548;2.704;2024-02-04T04:20:31;0.43;;;0.20;;
74679;SDS011;63211;48.548;2.704;2024-02-04T04:22:58;0.50;;;0.17;;
74679;SDS011;63211;48.548;2.704;2024-02-04T04:25:25;0.50;;;0.13;;
74679;SDS011;63211;48.548;2.704;2024-02-04T04:27:52;0.17;;;0.10;;
74679;SDS011;63211;48.548;2.704;2024-02-04T04:30:18;0.90;;;0.20;;
74679;SDS011;63211;48.548;2.704;2024-02-04T04:32:45;1.38;;;0.30;;
74679;SDS011;63211;48.548;2.704;2024-02-04T04:35:11;0.50;;;0.13;;
74679;SDS011;63211;48.548;2.704;2024-02-04T04:37:38;0.22;;;0.15;;
74679;SDS011;63211;48.548;2.704;2024-02-04T04:40:07;0.25;;;0.25;;
74679;SDS011;63211;48.548;2.704;2024-02-04T04:42:34;0.43;;;0.30;;
74679;SDS011;63211;48.548;2.704;2024-02-04T04:45:01;0.35;;;0.10;;
74679;SDS011;63211;48.548;2.704;2024-02-04T04:47:28;0.25;;;0.17;;
74679;SDS011;63211;48.548;2.704;2024-02-04T04:49:54;0.38;;;0.10;;
74679;SDS011;63211;48.548;2.704;2024-02-04T04:52:21;0.35;;;0.10;;
74679;SDS011;63211;48.548;2.704;2024-02-04T04:54:47;0.55;;;0.30;;
74679;SDS011;63211;48.548;2.704;2024-02-04T04:57:15;0.35;;;0.15;;
74679;SDS011;63211;48.548;2.704;2024-02-04T04:59:42;0.32;;;0.10;;
74679;SDS011;63211;48.548;2.704;2024-02-04T05:02:08;0.47;;;0.10;;
74679;SDS011;63211;48.548;2.704;2024-02-04T05:04:36;0.35;;;0.10;;
74679;SDS011;63211;48.548;2.704;2024-02-04T05:07:02;0.80;;;0.05;;
74679;SDS011;63211;48.548;2.704;2024-02-04T05:09:29;0.35;;;0.20;;
74679;SDS011;63211;48.548;2.704;2024-02-04T05:11:56;0.30;;;0.20;;
74679;SDS011;63211;48.548;2.704;2024-02-04T05:14:23;0.52;;;0.10;;
74679;SDS011;63211;48.548;2.704;2024-02-04T05:16:50;0.75;;;0.30;;
74679;SDS011;63211;48.548;2.704;2024-02-04T05:19:17;0.32;;;0.20;;
74679;SDS011;63211;48.548;2.704;2024-02-04T05:21:43;0.32;;;0.10;;
74679;SDS011;63211;48.548;2.704;2024-02-04T05:24:10;0.20;;;0.10;;
74679;SDS011;63211;48.548;2.704;2024-02-04T05:26:36;0.00;;;0.00;;
74679;SDS011;63211;48.548;2.704;2024-02-04T05:29:03;0.20;;;0.10;;
74679;SDS011;63211;48.548;2.704;2024-02-04T05:31:31;0.45;;;0.10;;
74679;SDS011;63211;48.548;2.704;2024-02-04T05:33:57;0.25;;;0.10;;
74679;SDS011;63211;48.548;2.704;2024-02-04T05:36:24;0.30;;;0.15;;
74679;SDS011;63211;48.548;2.704;2024-02-04T05:38:50;0.22;;;0.10;;
74679;SDS011;63211;48.548;2.704;2024-02-04T05:41:17;0.82;;;0.10;;
74679;SDS011;63211;48.548;2.704;2024-02-04T05:43:43;0.30;;;0.10;;
74679;SDS011;63211;48.548;2.704;2024-02-04T05:46:10;0.22;;;0.00;;
74679;SDS011;63211;48.548;2.704;2024-02-04T05:48:40;0.20;;;0.10;;
74679;SDS011;63211;48.548;2.704;2024-02-04T05:51:09;0.55;;;0.20;;
74679;SDS011;63211;48.548;2.704;2024-02-04T05:53:36;0.60;;;0.10;;
74679;SDS011;63211;48.548;2.704;2024-02-04T05:56:02;0.30;;;0.20;;
74679;SDS011;63211;48.548;2.704;2024-02-04T05:58:29;0.10;;;0.00;;
74679;SDS011;63211;48.548;2.704;2024-02-04T06:00:56;0.43;;;0.20;;
74679;SDS011;63211;48.548;2.704;2024-02-04T06:03:22;0.65;;;0.20;;
74679;SDS011;63211;48.548;2.704;2024-02-04T06:05:50;0.77;;;0.10;;
74679;SDS011;63211;48.548;2.704;2024-02-04T06:08:17;0.20;;;0.10;;
74679;SDS011;63211;48.548;2.704;2024-02-04T06:10:43;0.22;;;0.17;;
74679;SDS011;63211;48.548;2.704;2024-02-04T06:13:10;0.40;;;0.10;;
74679;SDS011;63211;48.548;2.704;2024-02-04T06:15:37;0.35;;;0.10;;
74679;SDS011;63211;48.548;2.704;2024-02-04T06:18:03;0.10;;;0.00;;
74679;SDS011;63211;48.548;2.704;2024-02-04T06:20:30;0.00;;;0.00;;
74679;SDS011;63211;48.548;2.704;2024-02-04T06:22:58;0.20;;;0.00;;
74679;SDS011;63211;48.548;2.704;2024-02-04T06:25:26;0.15;;;0.03;;
74679;SDS011;63211;48.548;2.704;2024-02-04T06:27:52;0.40;;;0.20;;
74679;SDS011;63211;48.548;2.704;2024-02-04T06:30:19;0.20;;;0.10;;
74679;SDS011;63211;48.548;2.704;2024-02-04T06:32:47;0.30;;;0.10;;
74679;SDS011;63211;48.548;2.704;2024-02-04T06:35:14;0.93;;;0.30;;
74679;SDS011;63211;48.548;2.704;2024-02-04T06:37:40;0.30;;;0.10;;
74679;SDS011;63211;48.548;2.704;2024-02-04T06:40:09;0.15;;;0.10;;
74679;SDS011;63211;48.548;2.704;2024-02-04T06:42:37;0.30;;;0.10;;
74679;SDS011;63211;48.548;2.704;2024-02-04T06:45:04;0.20;;;0.10;;
74679;SDS011;63211;48.548;2.704;2024-02-04T06:47:31;0.75;;;0.20;;
74679;SDS011;63211;48.548;2.704;2024-02-04T06:49:57;0.20;;;0.10;;
74679;SDS011;63211;48.548;2.704;2024-02-04T06:52:24;0.00;;;0.00;;
74679;SDS011;63211;48.548;2.704;2024-02-04T06:54:50;0.40;;;0.20;;
74679;SDS011;63211;48.548;2.704;2024-02-04T06:57:18;0.10;;;0.10;;
74679;SDS011;63211;48.548;2.704;2024-02-04T06:59:45;0.50;;;0.05;;
74679;SDS011;63211;48.548;2.704;2024-02-04T07:02:11;0.10;;;0.08;;
74679;SDS011;63211;48.548;2.704;2024-02-04T07:04:38;0.75;;;0.20;;
74679;SDS011;63211;48.548;2.704;2024-02-04T07:07:04;0.55;;;0.22;;
74679;SDS011;63211;48.548;2.704;2024-02-04T07:09:31;0.50;;;0.50;;
74679;SDS011;63211;48.548;2.704;2024-02-04T07:11:57;0.32;;;0.10;;
74679;SDS011;63211;48.548;2.704;2024-02-04T07:14:25;0.43;;;0.10;;
74679;SDS011;63211;48.548;2.704;2024-02-04T07:16:52;1.67;;;0.30;;
74679;SDS011;63211;48.548;2.704;2024-02-04T07:19:18;0.98;;;0.10;;
74679;SDS011;63211;48.548;2.704;2024-02-04T07:21:45;0.47;;;0.20;;
74679;SDS011;63211;48.548;2.704;2024-02-04T07:24:12;0.35;;;0.17;;
74679;SDS011;63211;48.548;2.704;2024-02-04T07:26:38;0.77;;;0.32;;
74679;SDS011;63211;48.548;2.704;2024-02-04T07:29:05;2.53;;;0.17;;
74679;SDS011;63211;48.548;2.704;2024-02-04T07:31:33;0.20;;;0.10;;
74679;SDS011;63211;48.548;2.704;2024-02-04T07:34:02;0.80;;;0.32;;
74679;SDS011;63211;48.548;2.704;2024-02-04T07:36:29;0.65;;;0.10;;
74679;SDS011;63211;48.548;2.704;2024-02-04T07:38:55;0.20;;;0.20;;
74679;SDS011;63211;48.548;2.704;2024-02-04T07:41:22;1.52;;;0.20;;
74679;SDS011;63211;48.548;2.704;2024-02-04T07:43:49;0.45;;;0.10;;
74679;SDS011;63211;48.548;2.704;2024-02-04T07:46:16;1.00;;;0.20;;
74679;SDS011;63211;48.548;2.704;2024-02-04T07:48:44;2.13;;;0.10;;
74679;SDS011;63211;48.548;2.704;2024-02-04T07:51:10;0.47;;;0.10;;
74679;SDS011;63211;48.548;2.704;2024-02-04T07:53:37;0.28;;;0.10;;
74679;SDS011;63211;48.548;2.704;2024-02-04T07:56:04;0.52;;;0.15;;
74679;SDS011;63211;48.548;2.704;2024-02-04T07:58:31;0.20;;;0.10;;
74679;SDS011;63211;48.548;2.704;2024-02-04T08:00:58;1.02;;;0.13;;
74679;SDS011;63211;48.548;2.704;2024-02-04T08:03:25;0.35;;;0.20;;
74679;SDS011;63211;48.548;2.704;2024-02-04T08:05:53;0.17;;;0.10;;
74679;SDS011;63211;48.548;2.704;2024-02-04T08:08:19;2.50;;;0.25;;
74679;SDS011;63211;48.548;2.704;2024-02-04T08:10:46;0.45;;;0.20;;
74679;SDS011;63211;48.548;2.704;2024-02-04T08:13:13;1.13;;;0.35;;
74679;SDS011;63211;48.548;2.704;2024-02-04T08:15:39;0.75;;;0.22;;
74679;SDS011;63211;48.548;2.704;2024-02-04T08:18:06;0.50;;;0.20;;
74679;SDS011;63211;48.548;2.704;2024-02-04T08:20:32;8.73;;;0.68;;
74679;SDS011;63211;48.548;2.704;2024-02-04T08:23:00;8.07;;;0.57;;
74679;SDS011;63211;48.548;2.704;2024-02-04T08:25:27;2.15;;;0.40;;
74679;SDS011;63211;48.548;2.704;2024-02-04T08:27:53;3.75;;;0.32;;
74679;SDS011;63211;48.548;2.704;2024-02-04T08:30:20;10.63;;;0.50;;
74679;SDS011;63211;48.548;2.704;2024-02-04T08:32:47;7.75;;;0.50;;
74679;SDS011;63211;48.548;2.704;2024-02-04T08:35:13;2.03;;;0.20;;
74679;SDS011;63211;48.548;2.704;2024-02-04T08:37:40;0.70;;;0.32;;
74679;SDS011;63211;48.548;2.704;2024-02-04T08:40:09;2.28;;;0.40;;
74679;SDS011;63211;48.548;2.704;2024-02-04T08:42:37;2.88;;;0.30;;
74679;SDS011;63211;48.548;2.704;2024-02-04T08:45:04;2.25;;;0.40;;
74679;SDS011;63211;48.548;2.704;2024-02-04T08:47:31;0.63;;;0.20;;
74679;SDS011;63211;48.548;2.704;2024-02-04T08:49:58;1.92;;;0.20;;
74679;SDS011;63211;48.548;2.704;2024-02-04T08:52:24;6.20;;;0.77;;
74679;SDS011;63211;48.548;2.704;2024-02-04T08:54:51;0.73;;;0.40;;
74679;SDS011;63211;48.548;2.704;2024-02-04T08:57:19;1.38;;;0.40;;
74679;SDS011;63211;48.548;2.704;2024-02-04T08:59:46;0.35;;;0.20;;
74679;SDS011;63211;48.548;2.704;2024-02-04T09:02:12;0.85;;;0.20;;
74679;SDS011;63211;48.548;2.704;2024-02-04T09:04:39;1.48;;;0.20;;
74679;SDS011;63211;48.548;2.704;2024-02-04T09:07:06;1.65;;;0.13;;
74679;SDS011;63211;48.548;2.704;2024-02-04T09:09:33;5.82;;;3.80;;
74679;SDS011;63211;48.548;2.704;2024-02-04T09:11:59;13.45;;;9.48;;
74679;SDS011;63211;48.548;2.704;2024-02-04T09:14:27;8.90;;;5.72;;
74679;SDS011;63211;48.548;2.704;2024-02-04T09:16:54;7.88;;;6.40;;
74679;SDS011;63211;48.548;2.704;2024-02-04T09:19:21;6.18;;;4.82;;
74679;SDS011;63211;48.548;2.704;2024-02-04T09:21:49;9.10;;;3.70;;
74679;SDS011;63211;48.548;2.704;2024-02-04T09:24:16;8.55;;;2.90;;
74679;SDS011;63211;48.548;2.704;2024-02-04T09:26:42;3.72;;;1.42;;
74679;SDS011;63211;48.548;2.704;2024-02-04T09:29:09;3.28;;;1.30;;
74679;SDS011;63211;48.548;2.704;2024-02-04T09:31:37;2.80;;;1.15;;
74679;SDS011;63211;48.548;2.704;2024-02-04T09:34:03;1.98;;;1.20;;
74679;SDS011;63211;48.548;2.704;2024-02-04T09:36:30;4.15;;;1.15;;
74679;SDS011;63211;48.548;2.704;2024-02-04T09:38:56;3.92;;;0.90;;
74679;SDS011;63211;48.548;2.704;2024-02-04T09:41:23;3.38;;;0.60;;
74679;SDS011;63211;48.548;2.704;2024-02-04T09:43:51;1.13;;;0.60;;
74679;SDS011;63211;48.548;2.704;2024-02-04T09:46:18;2.10;;;0.65;;
74679;SDS011;63211;48.548;2.704;2024-02-04T09:48:46;1.13;;;0.55;;
74679;SDS011;63211;48.548;2.704;2024-02-04T09:51:15;2.83;;;1.25;;
74679;SDS011;63211;48.548;2.704;2024-02-04T09:53:43;1.17;;;0.55;;
74679;SDS011;63211;48.548;2.704;2024-02-04T09:56:11;0.88;;;0.60;;
74679;SDS011;63211;48.548;2.704;2024-02-04T09:58:38;3.08;;;0.60;;
74679;SDS011;63211;48.548;2.704;2024-02-04T10:01:05;1.17;;;0.60;;
74679;SDS011;63211;48.548;2.704;2024-02-04T10:03:33;3.90;;;0.70;;
74679;SDS011;63211;48.548;2.704;2024-02-04T10:06:01;1.38;;;0.30;;
74679;SDS011;63211;48.548;2.704;2024-02-04T10:08:28;2.28;;;0.50;;
74679;SDS011;63211;48.548;2.704;2024-02-04T10:10:55;0.95;;;0.35;;
74679;SDS011;63211;48.548;2.704;2024-02-04T10:13:22;0.70;;;0.40;;
74679;SDS011;63211;48.548;2.704;2024-02-04T10:15:49;1.73;;;0.30;;
74679;SDS011;63211;48.548;2.704;2024-02-04T10:18:17;0.77;;;0.30;;
74679;SDS011;63211;48.548;2.704;2024-02-04T10:20:44;0.60;;;0.30;;
74679;SDS011;63211;48.548;2.704;2024-02-04T10:23:12;2.13;;;0.30;;
74679;SDS011;63211;48.548;2.704;2024-02-04T10:25:38;0.60;;;0.40;;
74679;SDS011;63211;48.548;2.704;2024-02-04T10:28:05;0.50;;;0.30;;
74679;SDS011;63211;48.548;2.704;2024-02-04T10:30:32;1.20;;;0.45;;
74679;SDS011;63211;48.548;2.704;2024-02-04T10:32:59;0.80;;;0.50;;
74679;SDS011;63211;48.548;2.704;2024-02-04T10:35:26;1.00;;;0.28;;
74679;SDS011;63211;48.548;2.704;2024-02-04T10:37:52;1.35;;;0.30;;
74679;SDS011;63211;48.548;2.704;2024-02-04T10:40:20;0.38;;;0.30;;
74679;SDS011;63211;48.548;2.704;2024-02-04T10:42:47;0.68;;;0.28;;
74679;SDS011;63211;48.548;2.704;2024-02-04T10:45:15;0.68;;;0.28;;
74679;SDS011;63211;48.548;2.704;2024-02-04T10:47:43;1.08;;;0.30;;
74679;SDS011;63211;48.548;2.704;2024-02-04T10:50:18;0.70;;;0.30;;
74679;SDS011;63211;48.548;2.704;2024-02-04T10:52:46;0.90;;;0.20;;
74679;SDS011;63211;48.548;2.704;2024-02-04T10:55:15;0.75;;;0.22;;
74679;SDS011;63211;48.548;2.704;2024-02-04T10:57:47;0.63;;;0.20;;
74679;SDS011;63211;48.548;2.704;2024-02-04T11:00:15;0.35;;;0.10;;
74679;SDS011;63211;48.548;2.704;2024-02-04T11:02:43;1.67;;;0.30;;
74679;SDS011;63211;48.548;2.704;2024-02-04T11:05:12;1.88;;;0.25;;
74679;SDS011;63211;48.548;2.704;2024-02-04T11:07:41;0.73;;;0.30;;
74679;SDS011;63211;48.548;2.704;2024-02-04T11:10:09;0.93;;;0.32;;
74679;SDS011;63211;48.548;2.704;2024-02-04T11:12:37;1.48;;;1.00;;
74679;SDS011;63211;48.548;2.704;2024-02-04T11:15:09;0.65;;;0.20;;
74679;SDS011;63211;48.548;2.704;2024-02-04T11:17:44;1.08;;;0.25;;
74679;SDS011;63211;48.548;2.704;2024-02-04T11:20:24;0.20;;;0.10;;
74679;SDS011;63211;48.548;2.704;2024-02-04T11:23:17;0.75;;;0.25;;
74679;SDS011;63211;48.548;2.704;2024-02-04T11:25:54;1.73;;;0.30;;
74679;SDS011;63211;48.548;2.704;2024-02-04T11:28:23;0.60;;;0.13;;
74679;SDS011;63211;48.548;2.704;2024-02-04T11:30:52;0.47;;;0.25;;
74679;SDS011;63211;48.548;2.704;2024-02-04T11:33:19;0.70;;;0.28;;
74679;SDS011;63211;48.548;2.704;2024-02-04T11:35:47;1.42;;;0.30;;
74679;SDS011;63211;48.548;2.704;2024-02-04T11:38:28;0.50;;;0.22;;
74679;SDS011;63211;48.548;2.704;2024-02-04T11:40:55;0.98;;;0.30;;
74679;SDS011;63211;48.548;2.704;2024-02-04T11:43:23;0.85;;;0.20;;
74679;SDS011;63211;48.548;2.704;2024-02-04T11:45:51;2.17;;;0.57;;
74679;SDS011;63211;48.548;2.704;2024-02-04T11:48:20;1.42;;;0.68;;
74679;SDS011;63211;48.548;2.704;2024-02-04T11:50:54;1.92;;;0.32;;
74679;SDS011;63211;48.548;2.704;2024-02-04T11:53:22;0.80;;;0.30;;
74679;SDS011;63211;48.548;2.704;2024-02-04T11:55:52;1.23;;;0.43;;
74679;SDS011;63211;48.548;2.704;2024-02-04T11:58:19;1.38;;;0.40;;
74679;SDS011;63211;48.548;2.704;2024-02-04T12:00:46;1.65;;;0.50;;
74679;SDS011;63211;48.548;2.704;2024-02-04T12:03:15;1.48;;;0.30;;
74679;SDS011;63211;48.548;2.704;2024-02-04T12:05:42;0.50;;;0.15;;
74679;SDS011;63211;48.548;2.704;2024-02-04T12:08:10;1.42;;;0.32;;
74679;SDS011;63211;48.548;2.704;2024-02-04T12:10:38;0.40;;;0.10;;
74679;SDS011;63211;48.548;2.704;2024-02-04T12:13:06;0.60;;;0.20;;
74679;SDS011;63211;48.548;2.704;2024-02-04T12:15:33;0.60;;;0.25;;
74679;SDS011;63211;48.548;2.704;2024-02-04T12:18:06;0.65;;;0.17;;
74679;SDS011;63211;48.548;2.704;2024-02-04T12:20:35;0.88;;;0.30;;
74679;SDS011;63211;48.548;2.704;2024-02-04T12:23:02;0.80;;;0.30;;
74679;SDS011;63211;48.548;2.704;2024-02-04T12:25:30;0.70;;;0.28;;
74679;SDS011;63211;48.548;2.704;2024-02-04T12:27:57;0.52;;;0.10;;
74679;SDS011;63211;48.548;2.704;2024-02-04T12:30:24;0.30;;;0.15;;
74679;SDS011;63211;48.548;2.704;2024-02-04T12:32:55;0.25;;;0.10;;
74679;SDS011;63211;48.548;2.704;2024-02-04T12:35:23;0.77;;;0.47;;
74679;SDS011;63211;48.548;2.704;2024-02-04T12:37:51;1.38;;;0.30;;
74679;SDS011;63211;48.548;2.704;2024-02-04T12:40:21;0.50;;;0.20;;
74679;SDS011;63211;48.548;2.704;2024-02-04T12:42:52;0.80;;;0.20;;
74679;SDS011;63211;48.548;2.704;2024-02-04T12:45:19;0.88;;;0.22;;
74679;SDS011;63211;48.548;2.704;2024-02-04T12:47:48;0.50;;;0.20;;
74679;SDS011;63211;48.548;2.704;2024-02-04T12:50:15;0.82;;;0.25;;
74679;SDS011;63211;48.548;2.704;2024-02-04T12:52:43;1.05;;;0.30;;
74679;SDS011;63211;48.548;2.704;2024-02-04T12:55:20;2.67;;;0.70;;
74679;SDS011;63211;48.548;2.704;2024-02-04T12:57:48;1.52;;;0.90;;
74679;SDS011;63211;48.548;2.704;2024-02-04T13:00:17;3.55;;;0.90;;
74679;SDS011;63211;48.548;2.704;2024-02-04T13:02:44;2.67;;;1.70;;
74679;SDS011;63211;48.548;2.704;2024-02-04T13:05:21;2.58;;;1.30;;
74679;SDS011;63211;48.548;2.704;2024-02-04T13:07:50;5.25;;;1.88;;
74679;SDS011;63211;48.548;2.704;2024-02-04T13:10:21;5.00;;;1.80;;
74679;SDS011;63211;48.548;2.704;2024-02-04T13:12:57;3.38;;;1.90;;
74679;SDS011;63211;48.548;2.704;2024-02-04T13:15:25;3.50;;;1.60;;
74679;SDS011;63211;48.548;2.704;2024-02-04T13:17:52;4.50;;;1.75;;
74679;SDS011;63211;48.548;2.704;2024-02-04T13:20:18;5.85;;;1.13;;
74679;SDS011;63211;48.548;2.704;2024-02-04T13:22:45;4.15;;;1.33;;
74679;SDS011;63211;48.548;2.704;2024-02-04T13:25:11;2.45;;;1.50;;
74679;SDS011;63211;48.548;2.704;2024-02-04T13:27:40;2.85;;;1.20;;
74679;SDS011;63211;48.548;2.704;2024-02-04T13:30:07;1.73;;;1.10;;
74679;SDS011;63211;48.548;2.704;2024-02-04T13:32:37;1.98;;;1.00;;
74679;SDS011;63211;48.548;2.704;2024-02-04T13:35:04;1.80;;;0.98;;
74679;SDS011;63211;48.548;2.704;2024-02-04T13:37:32;3.83;;;0.93;;
74679;SDS011;63211;48.548;2.704;2024-02-04T13:39:59;2.75;;;1.13;;
74679;SDS011;63211;48.548;2.704;2024-02-04T13:42:25;2.03;;;1.00;;
74679;SDS011;63211;48.548;2.704;2024-02-04T13:44:53;1.30;;;0.77;;
74679;SDS011;63211;48.548;2.704;2024-02-04T13:47:20;2.28;;;0.95;;
74679;SDS011;63211;48.548;2.704;2024-02-04T13:49:46;2.17;;;0.98;;
74679;SDS011;63211;48.548;2.704;2024-02-04T13:52:13;2.25;;;1.00;;
74679;SDS011;63211;48.548;2.704;2024-02-04T13:54:39;1.58;;;0.77;;
74679;SDS011;63211;48.548;2.704;2024-02-04T13:57:06;1.70;;;0.80;;
74679;SDS011;63211;48.548;2.704;2024-02-04T13:59:32;1.15;;;0.57;;
74679;SDS011;63211;48.548;2.704;2024-02-04T14:02:00;2.13;;;0.70;;
74679;SDS011;63211;48.548;2.704;2024-02-04T14:04:28;0.82;;;0.57;;
74679;SDS011;63211;48.548;2.704;2024-02-04T14:06:56;1.02;;;0.70;;
74679;SDS011;63211;48.548;2.704;2024-02-04T14:09:22;1.77;;;0.70;;
74679;SDS011;63211;48.548;2.704;2024-02-04T14:11:49;1.85;;;1.08;;
74679;SDS011;63211;48.548;2.704;2024-02-04T14:14:16;1.38;;;0.68;;
74679;SDS011;63211;48.548;2.704;2024-02-04T14:16:42;2.05;;;0.60;;
74679;SDS011;63211;48.548;2.704;2024-02-04T14:19:10;2.05;;;0.85;;
74679;SDS011;63211;48.548;2.704;2024-02-04T14:21:38;1.02;;;0.70;;
74679;SDS011;63211;48.548;2.704;2024-02-04T14:24:05;1.42;;;0.77;;
74679;SDS011;63211;48.548;2.704;2024-02-04T14:26:32;1.00;;;0.70;;
74679;SDS011;63211;48.548;2.704;2024-02-04T14:28:58;1.70;;;0.50;;
74679;SDS011;63211;48.548;2.704;2024-02-04T14:31:25;0.85;;;0.45;;
74679;SDS011;63211;48.548;2.704;2024-02-04T14:33:51;0.77;;;0.50;;
74679;SDS011;63211;48.548;2.704;2024-02-04T14:36:19;1.27;;;0.57;;
74679;SDS011;63211;48.548;2.704;2024-02-04T14:38:46;1.42;;;0.50;;
74679;SDS011;63211;48.548;2.704;2024-02-04T14:41:13;1.15;;;0.75;;
74679;SDS011;63211;48.548;2.704;2024-02-04T14:43:39;1.55;;;0.60;;
74679;SDS011;63211;48.548;2.704;2024-02-04T14:46:06;0.82;;;0.50;;
74679;SDS011;63211;48.548;2.704;2024-02-04T14:48:33;3.90;;;0.50;;
74679;SDS011;63211;48.548;2.704;2024-02-04T14:51:01;1.10;;;0.30;;